Time;durP1;ratioP1;P1;durP2;ratioP2;P2;SDS_P1;SDS_P2;PMS_P1;PMS_P2;Temp;Humidity;BMP_temperature;BMP_pressure;BME280_temperature;BME280_humidity;BME280_pressure;Samples;Min_cycle;Max_cycle;Signal;HPM_P1;HPM_P2
2023/05/10 00:00:23;;;;;;;10.45;2.40;;;;;;;;;;4993745;28;20057;-79
2023/05/10 00:02:49;;;;;;;25.00;2.95;;;;;;;;;;4992288;28;20375;-79
2023/05/10 00:05:14;;;;;;;21.77;2.28;;;;;;;;;;4993438;28;20046;-79
2023/05/10 00:07:40;;;;;;;28.67;3.20;;;;;;;;;;4992674;28;20034;-79
2023/05/10 00:10:06;;;;;;;21.90;2.45;;;;;;;;;;4981082;28;20463;-79
2023/05/10 00:12:32;;;;;;;19.35;2.00;;;;;;;;;;5024234;28;20053;-79
2023/05/10 00:14:57;;;;;;;55.42;4.35;;;;;;;;;;4993694;28;20406;-79
2023/05/10 00:17:22;;;;;;;179.65;8.02;;;;;;;;;;4992514;28;20042;-79
2023/05/10 00:19:48;;;;;;;324.55;13.80;;;;;;;;;;4989150;28;20042;-79
2023/05/10 00:22:13;;;;;;;147.50;5.35;;;;;;;;;;4991038;28;20061;-79
2023/05/10 00:24:39;;;;;;;55.67;2.65;;;;;;;;;;4993381;28;20053;-79
2023/05/10 00:27:04;;;;;;;52.97;2.67;;;;;;;;;;4993572;28;20053;-79
2023/05/10 00:29:30;;;;;;;60.25;2.78;;;;;;;;;;4993174;28;20026;-79
2023/05/10 00:31:56;;;;;;;99.28;4.05;;;;;;;;;;4992296;28;20038;-79
2023/05/10 00:34:21;;;;;;;56.45;2.78;;;;;;;;;;4992845;28;20114;-79
2023/05/10 00:36:47;;;;;;;84.45;3.40;;;;;;;;;;4993495;28;20471;-79
2023/05/10 00:39:12;;;;;;;53.08;2.30;;;;;;;;;;4993233;28;20109;-79
2023/05/10 00:41:37;;;;;;;63.35;3.42;;;;;;;;;;4993639;28;20050;-79
2023/05/10 00:44:04;;;;;;;60.03;3.60;;;;;;;;;;4993284;28;20441;-79
2023/05/10 00:46:30;;;;;;;72.65;4.15;;;;;;;;;;4993503;28;20038;-79
2023/05/10 00:48:56;;;;;;;71.28;4.05;;;;;;;;;;4992093;28;20030;-79
2023/05/10 00:51:21;;;;;;;43.78;3.22;;;;;;;;;;4993418;28;20490;-79
2023/05/10 00:53:47;;;;;;;100.00;6.05;;;;;;;;;;4985688;28;20042;-79
2023/05/10 00:56:12;;;;;;;18.35;2.00;;;;;;;;;;4988519;28;20038;-79
2023/05/10 00:58:39;;;;;;;9.50;2.15;;;;;;;;;;4991454;28;20068;-79
2023/05/10 01:01:05;;;;;;;169.35;8.50;;;;;;;;;;4991824;28;20125;-79
2023/05/10 01:03:31;;;;;;;146.30;7.95;;;;;;;;;;4992027;28;20038;-79
2023/05/10 01:05:56;;;;;;;192.25;8.10;;;;;;;;;;4990075;28;20073;-79
2023/05/10 01:08:22;;;;;;;185.82;7.40;;;;;;;;;;4991606;28;20077;-79
2023/05/10 01:10:49;;;;;;;169.60;6.00;;;;;;;;;;4991961;28;20042;-79
2023/05/10 01:13:18;;;;;;;136.40;5.68;;;;;;;;;;4994579;28;20033;-79
2023/05/10 01:15:44;;;;;;;47.65;3.10;;;;;;;;;;4992933;28;20045;-79
2023/05/10 01:18:10;;;;;;;63.63;2.92;;;;;;;;;;4995141;28;20046;-79
2023/05/10 01:20:40;;;;;;;17.65;2.13;;;;;;;;;;4995548;28;20038;-79
2023/05/10 01:23:35;;;;;;;7.75;1.98;;;;;;;;;;4995389;28;20126;-79
2023/05/10 01:26:42;;;;;;;20.67;2.28;;;;;;;;;;4995382;28;20372;-79
2023/05/10 01:29:38;;;;;;;93.35;4.78;;;;;;;;;;4993415;28;20871;-79
2023/05/10 01:32:10;;;;;;;33.83;2.20;;;;;;;;;;4984862;28;20482;-79
2023/05/10 01:34:42;;;;;;;87.38;4.13;;;;;;;;;;4992741;28;20046;-79
2023/05/10 01:37:11;;;;;;;86.72;3.53;;;;;;;;;;4994745;28;20039;-79
2023/05/10 01:39:45;;;;;;;69.50;3.05;;;;;;;;;;4990055;28;20035;-79
2023/05/10 01:42:17;;;;;;;54.80;3.17;;;;;;;;;;4994419;28;20173;-79
2023/05/10 01:44:49;;;;;;;46.40;2.45;;;;;;;;;;4992454;28;20038;-79
2023/05/10 01:47:28;;;;;;;14.15;1.73;;;;;;;;;;4979034;28;20132;-79
2023/05/10 01:49:55;;;;;;;55.58;3.00;;;;;;;;;;4995993;28;20042;-79
2023/05/10 01:52:30;;;;;;;67.95;3.88;;;;;;;;;;4992977;28;20113;-79
2023/05/10 01:55:00;;;;;;;43.95;2.33;;;;;;;;;;4987792;28;20037;-79
2023/05/10 01:57:28;;;;;;;46.85;2.60;;;;;;;;;;4985430;28;20054;-79
2023/05/10 01:59:53;;;;;;;25.83;2.13;;;;;;;;;;4995696;28;20034;-79
2023/05/10 02:02:20;;;;;;;43.28;2.63;;;;;;;;;;4994184;28;20049;-79
2023/05/10 02:04:47;;;;;;;8.32;1.30;;;;;;;;;;4992363;28;20097;-79
2023/05/10 02:07:14;;;;;;;4.40;1.38;;;;;;;;;;4992591;28;20038;-79
2023/05/10 02:09:39;;;;;;;17.48;2.15;;;;;;;;;;4994651;28;20030;-79
2023/05/10 02:12:06;;;;;;;33.58;2.10;;;;;;;;;;4994776;28;20368;-79
2023/05/10 02:14:34;;;;;;;12.93;1.55;;;;;;;;;;4995657;28;20080;-79
2023/05/10 02:17:00;;;;;;;17.45;2.03;;;;;;;;;;4994721;28;20070;-78
2023/05/10 02:19:27;;;;;;;7.28;1.58;;;;;;;;;;4994139;28;20030;-79
2023/05/10 02:21:52;;;;;;;26.45;2.30;;;;;;;;;;4985847;28;20073;-79
2023/05/10 02:24:18;;;;;;;15.85;2.03;;;;;;;;;;4990665;28;20070;-79
2023/05/10 02:26:45;;;;;;;7.30;1.77;;;;;;;;;;4995759;28;20045;-79
2023/05/10 02:29:12;;;;;;;6.88;2.40;;;;;;;;;;4995427;28;20026;-79
2023/05/10 02:31:38;;;;;;;10.40;2.03;;;;;;;;;;4994663;28;20045;-79
2023/05/10 02:34:06;;;;;;;67.53;4.07;;;;;;;;;;4976787;28;20050;-79
2023/05/10 02:36:32;;;;;;;149.20;7.47;;;;;;;;;;4995345;28;20034;-79
2023/05/10 02:38:58;;;;;;;25.40;1.98;;;;;;;;;;4994051;28;20053;-79
2023/05/10 02:41:24;;;;;;;62.42;3.25;;;;;;;;;;4993830;28;20375;-79
2023/05/10 02:43:51;;;;;;;23.40;2.45;;;;;;;;;;4993435;28;20030;-79
2023/05/10 02:46:17;;;;;;;32.65;2.40;;;;;;;;;;4994645;28;20039;-79
2023/05/10 02:48:42;;;;;;;12.30;1.92;;;;;;;;;;4994916;28;20057;-79
2023/05/10 02:51:08;;;;;;;9.38;1.60;;;;;;;;;;4989865;28;20060;-79
2023/05/10 02:53:35;;;;;;;8.07;1.60;;;;;;;;;;4990710;28;20035;-79
2023/05/10 02:56:06;;;;;;;17.55;1.73;;;;;;;;;;4990800;28;20109;-79
2023/05/10 02:58:32;;;;;;;7.80;1.35;;;;;;;;;;4993556;28;20050;-79
2023/05/10 03:00:57;;;;;;;14.00;1.95;;;;;;;;;;4992540;28;20049;-79
2023/05/10 03:03:23;;;;;;;3.75;1.77;;;;;;;;;;4994823;28;20517;-79
2023/05/10 03:05:48;;;;;;;3.65;1.42;;;;;;;;;;4980485;28;20034;-79
2023/05/10 03:08:14;;;;;;;4.88;1.65;;;;;;;;;;4994691;28;20093;-79
2023/05/10 03:11:06;;;;;;;6.53;1.60;;;;;;;;;;4993287;28;20042;-79
2023/05/10 03:14:09;;;;;;;82.30;4.05;;;;;;;;;;4994631;28;20030;-79
2023/05/10 03:16:42;;;;;;;24.00;1.80;;;;;;;;;;4987630;28;20125;-79
2023/05/10 03:19:30;;;;;;;40.17;1.70;;;;;;;;;;4985882;28;20045;-79
2023/05/10 03:21:59;;;;;;;3.30;1.23;;;;;;;;;;4993168;28;20154;-79
2023/05/10 03:24:27;;;;;;;20.13;1.65;;;;;;;;;;4994007;28;20038;-79
2023/05/10 03:26:56;;;;;;;44.97;2.20;;;;;;;;;;4986622;28;20057;-79
2023/05/10 03:29:22;;;;;;;7.50;1.48;;;;;;;;;;4993081;28;20026;-79
2023/05/10 03:31:47;;;;;;;9.63;1.52;;;;;;;;;;4993303;28;20034;-79
2023/05/10 03:34:12;;;;;;;10.75;1.73;;;;;;;;;;4993885;28;20053;-79
2023/05/10 03:36:38;;;;;;;4.30;2.13;;;;;;;;;;4986226;28;20081;-79
2023/05/10 03:39:03;;;;;;;5.80;1.27;;;;;;;;;;4993896;28;20049;-79
2023/05/10 03:41:29;;;;;;;7.20;1.40;;;;;;;;;;4986902;28;20065;-79
2023/05/10 03:43:54;;;;;;;4.70;1.50;;;;;;;;;;4994113;28;20065;-79
2023/05/10 03:46:20;;;;;;;13.13;1.75;;;;;;;;;;4994286;28;20427;-79
2023/05/10 03:48:45;;;;;;;80.55;4.13;;;;;;;;;;4993643;28;20121;-79
2023/05/10 03:51:10;;;;;;;67.90;4.78;;;;;;;;;;4994081;28;20073;-79
2023/05/10 03:53:36;;;;;;;6.00;1.45;;;;;;;;;;4992282;28;20030;-79
2023/05/10 03:56:01;;;;;;;5.78;1.52;;;;;;;;;;4992511;28;20517;-79
2023/05/10 03:58:27;;;;;;;10.60;1.35;;;;;;;;;;4993416;28;20049;-79
2023/05/10 04:00:52;;;;;;;7.30;1.77;;;;;;;;;;4993567;28;20049;-79
2023/05/10 04:03:18;;;;;;;4.57;1.40;;;;;;;;;;4993369;28;20034;-79
2023/05/10 04:05:43;;;;;;;7.18;1.42;;;;;;;;;;4990849;28;20038;-79
2023/05/10 04:08:08;;;;;;;3.42;1.20;;;;;;;;;;4993498;28;20158;-80
2023/05/10 04:10:34;;;;;;;9.65;1.40;;;;;;;;;;4989754;28;20368;-79
2023/05/10 04:12:59;;;;;;;2.50;1.50;;;;;;;;;;4993997;28;20031;-79
2023/05/10 04:15:25;;;;;;;6.40;1.30;;;;;;;;;;4993552;28;20089;-79
2023/05/10 04:17:50;;;;;;;13.48;2.17;;;;;;;;;;4992950;28;20062;-78
2023/05/10 04:20:16;;;;;;;3.65;1.20;;;;;;;;;;4992835;28;20030;-79
2023/05/10 04:22:42;;;;;;;8.30;1.48;;;;;;;;;;4993771;28;20121;-79
2023/05/10 04:25:08;;;;;;;8.20;1.55;;;;;;;;;;4992168;28;20557;-79
2023/05/10 04:27:33;;;;;;;9.45;1.42;;;;;;;;;;4991441;28;20037;-79
2023/05/10 04:29:58;;;;;;;22.08;1.92;;;;;;;;;;4993526;28;20074;-79
2023/05/10 04:32:24;;;;;;;15.10;2.13;;;;;;;;;;4992212;28;20077;-79
2023/05/10 04:34:50;;;;;;;4.22;1.38;;;;;;;;;;4993308;28;20042;-79
2023/05/10 04:37:16;;;;;;;43.03;3.00;;;;;;;;;;4993591;28;20040;-79
2023/05/10 04:39:41;;;;;;;19.45;1.52;;;;;;;;;;4993330;28;20042;-79
2023/05/10 04:42:07;;;;;;;4.63;1.48;;;;;;;;;;4993585;28;20037;-79
2023/05/10 04:44:32;;;;;;;10.35;1.50;;;;;;;;;;4992999;28;20367;-79
2023/05/10 04:46:58;;;;;;;9.80;1.65;;;;;;;;;;4992132;28;20038;-79
2023/05/10 04:49:23;;;;;;;10.13;1.75;;;;;;;;;;4996651;28;20072;-79
2023/05/10 04:51:48;;;;;;;4.38;1.27;;;;;;;;;;4996996;28;20487;-79
2023/05/10 04:54:14;;;;;;;12.82;1.65;;;;;;;;;;4997124;28;20042;-79
2023/05/10 04:56:40;;;;;;;5.85;1.45;;;;;;;;;;4997186;28;20022;-79
2023/05/10 04:59:05;;;;;;;12.93;1.58;;;;;;;;;;4996790;28;20030;-78
2023/05/10 05:01:31;;;;;;;18.13;1.50;;;;;;;;;;4996688;28;20030;-78
2023/05/10 05:03:56;;;;;;;13.13;1.63;;;;;;;;;;4996582;28;20026;-79
2023/05/10 05:06:21;;;;;;;5.47;1.45;;;;;;;;;;4993983;28;20429;-78
2023/05/10 05:08:49;;;;;;;9.40;2.15;;;;;;;;;;4996939;28;20034;-79
2023/05/10 05:11:14;;;;;;;14.10;1.40;;;;;;;;;;4997083;28;20073;-78
2023/05/10 05:13:39;;;;;;;49.17;2.65;;;;;;;;;;4997119;28;20038;-78
2023/05/10 05:16:05;;;;;;;7.43;1.42;;;;;;;;;;4996386;28;20061;-79
2023/05/10 05:18:30;;;;;;;25.90;2.25;;;;;;;;;;4996861;28;20037;-78
2023/05/10 05:20:56;;;;;;;31.40;2.10;;;;;;;;;;4996408;28;20038;-79
2023/05/10 05:23:24;;;;;;;19.70;2.13;;;;;;;;;;4996541;28;20042;-78
2023/05/10 05:25:51;;;;;;;28.00;2.80;;;;;;;;;;4996514;28;20026;-78
2023/05/10 05:28:16;;;;;;;22.00;2.08;;;;;;;;;;4996665;28;20030;-78
2023/05/10 05:30:42;;;;;;;17.08;2.00;;;;;;;;;;4996190;28;20503;-79
2023/05/10 05:33:07;;;;;;;29.55;2.72;;;;;;;;;;4996604;28;20037;-78
2023/05/10 05:35:33;;;;;;;44.65;2.85;;;;;;;;;;4995903;28;20117;-79
2023/05/10 05:37:58;;;;;;;68.65;4.00;;;;;;;;;;4996515;28;20116;-79
2023/05/10 05:40:24;;;;;;;227.82;11.32;;;;;;;;;;4994998;28;20471;-79
2023/05/10 05:42:49;;;;;;;277.48;14.23;;;;;;;;;;4996591;28;20482;-79
2023/05/10 05:45:15;;;;;;;605.40;29.83;;;;;;;;;;4996161;28;20096;-79
2023/05/10 05:47:40;;;;;;;89.15;4.38;;;;;;;;;;4996591;28;20120;-79
2023/05/10 05:50:06;;;;;;;350.30;15.73;;;;;;;;;;4985071;28;20042;-79
2023/05/10 05:52:32;;;;;;;95.00;4.13;;;;;;;;;;4985856;28;20038;-79
2023/05/10 05:54:57;;;;;;;697.15;31.55;;;;;;;;;;4994950;28;20387;-79
2023/05/10 05:57:23;;;;;;;704.45;29.92;;;;;;;;;;4995739;28;20483;-79
2023/05/10 05:59:48;;;;;;;1010.03;41.30;;;;;;;;;;4995082;28;20129;-79
2023/05/10 06:02:13;;;;;;;696.10;27.90;;;;;;;;;;4995944;28;20130;-79
2023/05/10 06:04:39;;;;;;;673.67;30.27;;;;;;;;;;4995589;28;20394;-79
2023/05/10 06:07:04;;;;;;;255.70;10.25;;;;;;;;;;4995758;28;20045;-79
2023/05/10 06:09:30;;;;;;;312.70;12.50;;;;;;;;;;4995197;28;20044;-79
2023/05/10 06:11:55;;;;;;;11.10;1.30;;;;;;;;;;4996036;28;20052;-79
2023/05/10 06:14:21;;;;;;;254.73;12.63;;;;;;;;;;4995586;28;20048;-79
2023/05/10 06:16:46;;;;;;;64.50;3.08;;;;;;;;;;4995800;28;20038;-79
2023/05/10 06:19:12;;;;;;;6.30;1.00;;;;;;;;;;4995246;28;20038;-79
2023/05/10 06:21:37;;;;;;;5.22;1.05;;;;;;;;;;4995426;28;20418;-79
2023/05/10 06:24:03;;;;;;;12.90;1.23;;;;;;;;;;4995418;28;20038;-80
2023/05/10 06:26:28;;;;;;;2.20;0.93;;;;;;;;;;4994545;28;20045;-79
2023/05/10 06:28:53;;;;;;;1.63;0.80;;;;;;;;;;4994210;28;20046;-80
2023/05/10 06:31:19;;;;;;;3.22;1.00;;;;;;;;;;4991906;28;20038;-78
2023/05/10 06:33:44;;;;;;;2.53;0.88;;;;;;;;;;4994961;28;20375;-78
2023/05/10 06:36:10;;;;;;;1.85;0.90;;;;;;;;;;4995545;28;20128;-79
2023/05/10 06:38:35;;;;;;;3.55;0.82;;;;;;;;;;4994992;28;20038;-79
2023/05/10 06:41:01;;;;;;;1.63;0.80;;;;;;;;;;4993901;28;20546;-79
2023/05/10 06:43:28;;;;;;;1.75;0.90;;;;;;;;;;4995582;28;20113;-78
2023/05/10 06:45:53;;;;;;;2.35;1.00;;;;;;;;;;4995221;28;20066;-78
2023/05/10 06:48:19;;;;;;;2.58;0.80;;;;;;;;;;4995385;28;20039;-78
2023/05/10 06:50:44;;;;;;;3.85;1.50;;;;;;;;;;4995081;28;20034;-78
2023/05/10 06:53:11;;;;;;;3.58;1.40;;;;;;;;;;4995064;28;20031;-78
2023/05/10 06:55:36;;;;;;;3.67;1.30;;;;;;;;;;4995150;28;20038;-78
2023/05/10 06:58:02;;;;;;;4.60;1.20;;;;;;;;;;4995092;28;20050;-78
2023/05/10 07:00:27;;;;;;;3.25;1.10;;;;;;;;;;4994968;28;20034;-78
2023/05/10 07:02:53;;;;;;;4.38;0.90;;;;;;;;;;4984458;28;20473;-78
2023/05/10 07:05:18;;;;;;;4.13;1.10;;;;;;;;;;4993555;28;20046;-78
2023/05/10 07:07:43;;;;;;;1.73;1.10;;;;;;;;;;4994988;28;20031;-80
2023/05/10 07:10:09;;;;;;;4.07;0.93;;;;;;;;;;4994466;28;20038;-78
2023/05/10 07:12:35;;;;;;;2.25;1.30;;;;;;;;;;4986280;28;20123;-78
2023/05/10 07:15:00;;;;;;;2.65;1.10;;;;;;;;;;4994387;28;20054;-78
2023/05/10 07:17:25;;;;;;;6.35;1.60;;;;;;;;;;4994843;28;20049;-78
2023/05/10 07:19:51;;;;;;;2.85;1.67;;;;;;;;;;4997088;28;20128;-78
2023/05/10 07:22:16;;;;;;;4.70;1.33;;;;;;;;;;4996700;28;20038;-78
2023/05/10 07:24:42;;;;;;;10.18;2.30;;;;;;;;;;4993937;28;20049;-78
2023/05/10 07:27:08;;;;;;;7.57;1.90;;;;;;;;;;4987123;28;20164;-78
2023/05/10 07:29:34;;;;;;;5.68;1.65;;;;;;;;;;4991683;28;20034;-79
2023/05/10 07:32:00;;;;;;;6.32;1.52;;;;;;;;;;4991398;28;20121;-79
2023/05/10 07:34:25;;;;;;;5.18;1.40;;;;;;;;;;4991117;28;20038;-80
2023/05/10 07:36:51;;;;;;;8.32;1.80;;;;;;;;;;4980409;28;20485;-79
2023/05/10 07:39:16;;;;;;;4.10;1.45;;;;;;;;;;4989797;28;20038;-79
2023/05/10 07:41:42;;;;;;;8.10;1.88;;;;;;;;;;4991753;28;20483;-79
2023/05/10 07:44:07;;;;;;;10.05;1.60;;;;;;;;;;4990623;28;20054;-79
2023/05/10 07:46:33;;;;;;;9.80;1.90;;;;;;;;;;4983796;28;20034;-79
2023/05/10 07:48:58;;;;;;;14.52;1.70;;;;;;;;;;4991342;28;20038;-79
2023/05/10 07:51:23;;;;;;;7.90;2.20;;;;;;;;;;4988946;28;20050;-79
2023/05/10 07:53:49;;;;;;;6.70;1.65;;;;;;;;;;4991110;28;21049;-80
2023/05/10 07:56:26;;;;;;;5.15;1.65;;;;;;;;;;4990376;28;20454;-79
2023/05/10 07:58:53;;;;;;;7.28;1.38;;;;;;;;;;4988747;28;20057;-79
2023/05/10 08:01:18;;;;;;;6.57;1.73;;;;;;;;;;4989261;28;20551;-79
2023/05/10 08:03:43;;;;;;;4.55;1.90;;;;;;;;;;4985926;28;20198;-80
2023/05/10 08:06:09;;;;;;;9.20;1.80;;;;;;;;;;4982981;28;20386;-80
2023/05/10 08:08:34;;;;;;;6.68;1.80;;;;;;;;;;4986112;28;20057;-80
2023/05/10 08:11:00;;;;;;;5.07;1.33;;;;;;;;;;4981925;28;20038;-80
2023/05/10 08:13:25;;;;;;;5.47;1.60;;;;;;;;;;4983701;28;20034;-80
2023/05/10 08:15:52;;;;;;;6.40;1.50;;;;;;;;;;4991859;28;20114;-80
2023/05/10 08:18:18;;;;;;;7.85;1.55;;;;;;;;;;4991480;28;20041;-79
2023/05/10 08:20:43;;;;;;;4.75;1.40;;;;;;;;;;4990449;28;20406;-80
2023/05/10 08:23:09;;;;;;;7.20;1.27;;;;;;;;;;4988259;28;20045;-79
2023/05/10 08:25:34;;;;;;;6.10;1.63;;;;;;;;;;4991312;28;20491;-80
2023/05/10 08:28:00;;;;;;;7.20;1.52;;;;;;;;;;4986596;28;20035;-79
2023/05/10 08:30:25;;;;;;;7.50;1.30;;;;;;;;;;4987806;28;20035;-79
2023/05/10 08:32:50;;;;;;;8.15;1.40;;;;;;;;;;4992050;28;20038;-78
2023/05/10 08:35:16;;;;;;;8.48;1.60;;;;;;;;;;4993314;28;20065;-78
2023/05/10 08:37:41;;;;;;;6.30;1.40;;;;;;;;;;4977917;28;20133;-78
2023/05/10 08:40:10;;;;;;;6.13;1.65;;;;;;;;;;4988196;28;20096;-79
2023/05/10 08:42:37;;;;;;;5.22;1.52;;;;;;;;;;4980898;28;20039;-79
2023/05/10 08:45:03;;;;;;;7.72;1.40;;;;;;;;;;4985783;28;20042;-79
2023/05/10 08:47:29;;;;;;;6.07;1.65;;;;;;;;;;4988121;28;20041;-80
2023/05/10 08:49:54;;;;;;;7.85;1.33;;;;;;;;;;4985119;28;20437;-79
2023/05/10 08:52:20;;;;;;;3.80;1.15;;;;;;;;;;4987449;28;20442;-80
2023/05/10 08:54:46;;;;;;;5.22;1.17;;;;;;;;;;4989276;28;20061;-79
2023/05/10 08:57:12;;;;;;;5.28;1.13;;;;;;;;;;4975808;28;20050;-79
2023/05/10 08:59:39;;;;;;;6.13;1.10;;;;;;;;;;4974781;28;20178;-79
2023/05/10 09:02:05;;;;;;;7.97;1.63;;;;;;;;;;4969054;28;20042;-80
2023/05/10 09:04:31;;;;;;;3.50;1.30;;;;;;;;;;4970724;28;20023;-79
2023/05/10 09:06:56;;;;;;;7.68;1.73;;;;;;;;;;4972139;28;20482;-78
2023/05/10 09:09:23;;;;;;;10.55;1.70;;;;;;;;;;4981624;28;20030;-79
2023/05/10 09:11:49;;;;;;;4.47;1.40;;;;;;;;;;4973394;28;20066;-80
2023/05/10 09:14:15;;;;;;;5.32;1.25;;;;;;;;;;4980634;28;20080;-80
2023/05/10 09:16:41;;;;;;;6.03;1.42;;;;;;;;;;4985153;28;20053;-80
2023/05/10 09:19:08;;;;;;;5.45;1.40;;;;;;;;;;4987589;28;20030;-80
2023/05/10 09:21:37;;;;;;;6.70;1.67;;;;;;;;;;4988308;28;20042;-80
2023/05/10 09:24:04;;;;;;;4.43;1.08;;;;;;;;;;4985167;28;20031;-79
2023/05/10 09:26:30;;;;;;;5.95;1.60;;;;;;;;;;4969737;28;20042;-80
2023/05/10 09:28:57;;;;;;;3.95;1.65;;;;;;;;;;4983308;28;20046;-80
2023/05/10 09:31:24;;;;;;;6.82;1.30;;;;;;;;;;4987276;28;20501;-80
2023/05/10 09:33:50;;;;;;;6.25;1.33;;;;;;;;;;4981113;28;20038;-80
2023/05/10 09:36:16;;;;;;;4.25;1.17;;;;;;;;;;4983761;28;20057;-80
2023/05/10 09:38:46;;;;;;;5.05;1.05;;;;;;;;;;4989485;28;20040;-80
2023/05/10 09:41:18;;;;;;;5.50;1.30;;;;;;;;;;4985762;28;20062;-80
2023/05/10 09:43:43;;;;;;;5.53;1.30;;;;;;;;;;4986033;28;20042;-79
2023/05/10 09:46:11;;;;;;;5.40;1.35;;;;;;;;;;4991088;28;20033;-79
2023/05/10 09:48:42;;;;;;;5.93;1.20;;;;;;;;;;4991880;28;20442;-80
2023/05/10 09:51:07;;;;;;;4.95;1.15;;;;;;;;;;4989908;28;20052;-79
2023/05/10 09:53:32;;;;;;;4.03;1.10;;;;;;;;;;4983791;28;20113;-78
2023/05/10 09:55:58;;;;;;;4.85;1.48;;;;;;;;;;4979074;28;20034;-78
2023/05/10 09:58:23;;;;;;;5.65;1.13;;;;;;;;;;4991388;28;20054;-79
2023/05/10 10:00:51;;;;;;;7.55;1.17;;;;;;;;;;4991400;28;20034;-79
2023/05/10 10:03:19;;;;;;;3.42;1.20;;;;;;;;;;4990786;28;20097;-78
2023/05/10 10:05:45;;;;;;;4.45;1.88;;;;;;;;;;4989878;28;20049;-79
2023/05/10 10:08:12;;;;;;;5.28;1.25;;;;;;;;;;4990628;28;20034;-79
2023/05/10 10:10:39;;;;;;;7.18;1.30;;;;;;;;;;4991050;28;20038;-79
2023/05/10 10:13:05;;;;;;;6.22;1.52;;;;;;;;;;4991546;28;20042;-80
2023/05/10 10:15:32;;;;;;;4.63;1.10;;;;;;;;;;4978120;28;20053;-80
2023/05/10 10:17:59;;;;;;;7.55;1.50;;;;;;;;;;4991321;28;20112;-80
2023/05/10 10:20:25;;;;;;;5.68;1.20;;;;;;;;;;4990048;28;20058;-80
2023/05/10 10:22:51;;;;;;;4.20;1.08;;;;;;;;;;4991464;28;20027;-79
2023/05/10 10:25:18;;;;;;;6.45;1.40;;;;;;;;;;4991461;28;20034;-79
2023/05/10 10:27:52;;;;;;;5.88;1.10;;;;;;;;;;4989233;28;20447;-79
2023/05/10 10:30:36;;;;;;;4.45;1.70;;;;;;;;;;4990322;28;20493;-79
2023/05/10 10:33:29;;;;;;;4.60;1.23;;;;;;;;;;4991672;28;20073;-79
2023/05/10 10:35:58;;;;;;;3.65;1.00;;;;;;;;;;4977737;28;20080;-79
2023/05/10 10:38:24;;;;;;;4.05;1.08;;;;;;;;;;4979125;28;20042;-79
2023/05/10 10:41:02;;;;;;;4.75;1.10;;;;;;;;;;4979863;28;20030;-79
2023/05/10 10:43:28;;;;;;;6.07;1.20;;;;;;;;;;4978016;28;20042;-79
2023/05/10 10:46:13;;;;;;;6.18;1.25;;;;;;;;;;4989737;28;20053;-78
2023/05/10 10:48:40;;;;;;;3.50;0.93;;;;;;;;;;4991218;28;20042;-79
2023/05/10 10:51:05;;;;;;;18.85;1.52;;;;;;;;;;4989348;28;20045;-78
2023/05/10 10:53:32;;;;;;;5.53;1.58;;;;;;;;;;4989697;28;20030;-79
2023/05/10 10:56:09;;;;;;;2.65;0.98;;;;;;;;;;4990917;28;20042;-78
2023/05/10 10:58:35;;;;;;;3.42;1.00;;;;;;;;;;4989539;28;20046;-78
2023/05/10 11:01:32;;;;;;;4.60;1.20;;;;;;;;;;4988816;28;20545;-78
2023/05/10 11:04:00;;;;;;;3.47;1.00;;;;;;;;;;4970042;28;20038;-78
2023/05/10 11:06:31;;;;;;;6.18;1.23;;;;;;;;;;4987508;28;20049;-79
2023/05/10 11:08:57;;;;;;;4.63;1.02;;;;;;;;;;4978505;28;20042;-79
2023/05/10 11:11:22;;;;;;;7.50;1.23;;;;;;;;;;4975699;28;20038;-78
2023/05/10 11:13:50;;;;;;;2.97;0.98;;;;;;;;;;5007385;28;20038;-78
2023/05/10 11:16:19;;;;;;;4.13;1.10;;;;;;;;;;4984480;28;20031;-78
2023/05/10 11:19:01;;;;;;;4.47;1.13;;;;;;;;;;4988479;28;20485;-78
2023/05/10 11:21:28;;;;;;;4.25;1.17;;;;;;;;;;4982183;28;20458;-78
2023/05/10 11:23:58;;;;;;;4.95;1.40;;;;;;;;;;4989919;28;20038;-79
2023/05/10 11:26:25;;;;;;;3.03;1.33;;;;;;;;;;4990505;28;20038;-78
2023/05/10 11:28:55;;;;;;;7.38;1.50;;;;;;;;;;4978172;28;20050;-78
2023/05/10 11:31:21;;;;;;;3.88;1.10;;;;;;;;;;4979695;28;20586;-78
2023/05/10 11:33:49;;;;;;;3.45;1.65;;;;;;;;;;4975867;28;20034;-78
2023/05/10 11:36:17;;;;;;;5.15;1.20;;;;;;;;;;4989444;28;20496;-79
2023/05/10 11:38:43;;;;;;;6.07;1.30;;;;;;;;;;4975587;28;20498;-79
2023/05/10 11:41:10;;;;;;;4.45;1.25;;;;;;;;;;4973416;28;20035;-79
2023/05/10 11:43:38;;;;;;;6.85;1.17;;;;;;;;;;4973179;28;20093;-79
2023/05/10 11:46:07;;;;;;;8.38;1.27;;;;;;;;;;4974447;28;20055;-79
2023/05/10 11:48:32;;;;;;;5.63;0.98;;;;;;;;;;4979805;28;20088;-78
2023/05/10 11:50:58;;;;;;;4.75;1.05;;;;;;;;;;4984233;28;20041;-79
2023/05/10 11:53:26;;;;;;;2.35;0.93;;;;;;;;;;4970227;28;20031;-79
2023/05/10 11:55:51;;;;;;;3.58;1.05;;;;;;;;;;4988715;28;20038;-79
2023/05/10 11:58:18;;;;;;;3.67;1.00;;;;;;;;;;4988503;28;20104;-79
2023/05/10 12:00:44;;;;;;;3.60;1.48;;;;;;;;;;4988006;28;20108;-79
2023/05/10 12:03:10;;;;;;;5.63;1.35;;;;;;;;;;4989965;28;20459;-79
2023/05/10 12:05:36;;;;;;;4.60;1.20;;;;;;;;;;4989813;28;20394;-80
2023/05/10 12:08:30;;;;;;;5.28;1.20;;;;;;;;;;4988552;28;20046;-79
2023/05/10 12:11:13;;;;;;;2.40;0.93;;;;;;;;;;4987081;28;20054;-79
2023/05/10 12:13:40;;;;;;;5.95;1.30;;;;;;;;;;4986971;28;20042;-79
2023/05/10 12:16:23;;;;;;;2.22;0.80;;;;;;;;;;4980480;28;20062;-79
2023/05/10 12:18:50;;;;;;;2.88;1.10;;;;;;;;;;4982442;28;20038;-79
2023/05/10 12:21:16;;;;;;;3.60;0.68;;;;;;;;;;4985346;28;20038;-79
2023/05/10 12:23:42;;;;;;;2.60;0.90;;;;;;;;;;4976583;28;20038;-82
2023/05/10 12:26:10;;;;;;;2.45;0.90;;;;;;;;;;4983162;28;20113;-80
2023/05/10 12:28:37;;;;;;;2.30;0.85;;;;;;;;;;4980686;28;20051;-80
2023/05/10 12:31:03;;;;;;;3.20;1.10;;;;;;;;;;4984351;28;20627;-80
2023/05/10 12:33:38;;;;;;;5.32;1.60;;;;;;;;;;4984621;28;20030;-80
2023/05/10 12:36:04;;;;;;;9.15;1.50;;;;;;;;;;4988123;28;20042;-80
2023/05/10 12:38:42;;;;;;;8.75;1.77;;;;;;;;;;4988001;28;20482;-81
2023/05/10 12:41:18;;;;;;;8.40;1.50;;;;;;;;;;4987236;28;20042;-80
2023/05/10 12:43:45;;;;;;;8.20;1.42;;;;;;;;;;4974187;28;20076;-81
2023/05/10 12:46:17;;;;;;;5.18;1.50;;;;;;;;;;4981352;28;20046;-80
2023/05/10 12:48:43;;;;;;;4.70;1.60;;;;;;;;;;5010102;28;20047;-81
2023/05/10 12:51:11;;;;;;;14.15;1.85;;;;;;;;;;5000934;28;20034;-81
2023/05/10 12:53:37;;;;;;;6.30;1.60;;;;;;;;;;4986274;28;20126;-80
2023/05/10 12:56:02;;;;;;;6.60;1.88;;;;;;;;;;4986315;28;21009;-80
2023/05/10 12:58:28;;;;;;;5.68;1.50;;;;;;;;;;4970750;28;20575;-81
2023/05/10 13:00:53;;;;;;;4.82;1.50;;;;;;;;;;4982988;28;20037;-80
2023/05/10 13:03:19;;;;;;;5.47;1.60;;;;;;;;;;4983598;28;20461;-81
2023/05/10 13:05:44;;;;;;;5.55;2.10;;;;;;;;;;4977038;28;20077;-80
2023/05/10 13:08:10;;;;;;;5.38;1.35;;;;;;;;;;4981279;28;20026;-81
2023/05/10 13:10:35;;;;;;;8.25;1.40;;;;;;;;;;4983979;28;20380;-81
2023/05/10 13:13:01;;;;;;;3.55;1.27;;;;;;;;;;4982321;28;20759;-81
2023/05/10 13:15:26;;;;;;;5.60;0.95;;;;;;;;;;4986780;28;20034;-80
2023/05/10 13:17:54;;;;;;;4.97;0.90;;;;;;;;;;4986286;28;20054;-79
2023/05/10 13:20:19;;;;;;;4.32;1.10;;;;;;;;;;4976660;28;20047;-79
2023/05/10 13:22:44;;;;;;;4.80;0.90;;;;;;;;;;4976868;28;20042;-79
2023/05/10 13:25:10;;;;;;;2.67;0.60;;;;;;;;;;4975123;28;20121;-79
2023/05/10 13:27:36;;;;;;;2.42;0.70;;;;;;;;;;4991367;28;20042;-79
2023/05/10 13:30:03;;;;;;;1.92;0.82;;;;;;;;;;4989299;28;20042;-79
2023/05/10 13:32:29;;;;;;;4.72;0.85;;;;;;;;;;4984367;28;20070;-79
2023/05/10 13:34:55;;;;;;;1.73;0.75;;;;;;;;;;4973892;28;20097;-79
2023/05/10 13:37:21;;;;;;;2.05;0.82;;;;;;;;;;4985379;28;20058;-79
2023/05/10 13:39:46;;;;;;;2.60;0.80;;;;;;;;;;4988411;28;20092;-79
2023/05/10 13:42:11;;;;;;;1.38;0.75;;;;;;;;;;4986211;28;20045;-79
2023/05/10 13:44:38;;;;;;;3.28;0.98;;;;;;;;;;4978323;28;20027;-80
2023/05/10 13:47:04;;;;;;;3.85;0.90;;;;;;;;;;4974213;28;20042;-79
2023/05/10 13:49:29;;;;;;;2.78;0.98;;;;;;;;;;4974481;28;20042;-79
2023/05/10 13:51:54;;;;;;;2.15;0.82;;;;;;;;;;4978445;28;20070;-79
2023/05/10 13:54:21;;;;;;;2.72;0.90;;;;;;;;;;4983740;28;20035;-80
2023/05/10 13:56:48;;;;;;;5.55;1.13;;;;;;;;;;4976968;28;20776;-80
2023/05/10 13:59:14;;;;;;;2.90;1.00;;;;;;;;;;4975069;28;20034;-80
2023/05/10 14:01:42;;;;;;;2.80;1.10;;;;;;;;;;4975926;28;20050;-79
2023/05/10 14:04:10;;;;;;;5.43;1.70;;;;;;;;;;4973880;28;20034;-79
2023/05/10 14:06:36;;;;;;;4.32;1.50;;;;;;;;;;4974601;28;20043;-79
2023/05/10 14:09:02;;;;;;;3.63;1.10;;;;;;;;;;4974404;28;20045;-79
2023/05/10 14:11:27;;;;;;;2.70;0.90;;;;;;;;;;4991562;28;20038;-79
2023/05/10 14:13:52;;;;;;;2.60;0.85;;;;;;;;;;4992180;28;20046;-79
2023/05/10 14:16:19;;;;;;;3.25;0.90;;;;;;;;;;4988234;28;20386;-79
2023/05/10 14:18:44;;;;;;;2.38;0.98;;;;;;;;;;4989965;28;20058;-80
2023/05/10 14:21:09;;;;;;;4.03;0.90;;;;;;;;;;4990502;28;20062;-79
2023/05/10 14:23:35;;;;;;;2.10;0.90;;;;;;;;;;4990752;28;20042;-80
2023/05/10 14:26:01;;;;;;;4.43;1.00;;;;;;;;;;4991020;28;20050;-80
2023/05/10 14:28:26;;;;;;;5.82;0.90;;;;;;;;;;4991122;28;20034;-80
2023/05/10 14:30:52;;;;;;;3.80;0.90;;;;;;;;;;4990051;28;20112;-80
2023/05/10 14:33:17;;;;;;;2.65;1.10;;;;;;;;;;4991247;28;20050;-80
2023/05/10 14:35:42;;;;;;;3.95;1.10;;;;;;;;;;4990568;28;20414;-80
2023/05/10 14:38:08;;;;;;;2.90;0.95;;;;;;;;;;4991601;28;20042;-79